Time,TemperatureF,DewpointF,PressureIn,WindDirection,WindDirectionDegrees,WindSpeedMPH,WindSpeedGustMPH,Humidity,HourlyPrecipIn,Conditions,Clouds,dailyrainin,SoftwareType,DateUTC
2013-10-17 00:07:00,58.6,56.0,29.87,SW,225,4.0,8.0,91,0.00,,,0.00,weatherlink.com 1.10,2013-10-17 04:07:00,
2013-10-17 00:22:00,58.6,56.0,29.87,SW,227,5.0,6.0,91,0.00,,,0.00,weatherlink.com 1.10,2013-10-17 04:22:00,
2013-10-17 00:37:00,58.6,56.0,29.87,SW,220,5.0,6.0,92,0.00,,,0.00,weatherlink.com 1.10,2013-10-17 04:37:00,
2013-10-17 00:52:00,58.7,56.0,29.86,SW,214,5.0,8.0,92,0.00,,,0.00,weatherlink.com 1.10,2013-10-17 04:52:00,
2013-10-17 01:07:00,58.7,56.0,29.86,SW,226,6.0,8.0,92,0.00,,,0.00,weatherlink.com 1.10,2013-10-17 05:07:00,
2013-10-17 01:22:00,58.7,57.0,29.85,SSW,205,7.0,11.0,93,0.00,,,0.00,weatherlink.com 1.10,2013-10-17 05:22:00,
2013-10-17 01:37:00,58.7,57.0,29.86,SW,235,6.0,11.0,93,0.00,,,0.00,weatherlink.com 1.10,2013-10-17 05:37:00,
2013-10-17 01:52:00,58.8,57.0,29.86,SW,230,9.0,11.0,93,0.00,,,0.00,weatherlink.com 1.10,2013-10-17 05:52:00,
2013-10-17 02:07:00,58.8,57.0,29.86,SW,223,6.0,10.0,94,0.00,,,0.00,weatherlink.com 1.10,2013-10-17 06:07:00,
2013-10-17 02:22:00,58.9,57.0,29.85,SW,220,7.0,8.0,93,0.00,,,0.00,weatherlink.com 1.10,2013-10-17 06:22:00,
2013-10-17 02:37:00,58.9,57.0,29.85,SW,228,4.0,7.0,93,0.00,,,0.00,weatherlink.com 1.10,2013-10-17 06:37:00,
2013-10-17 02:52:00,59.0,57.0,29.85,SW,229,3.0,6.0,93,0.00,,,0.00,weatherlink.com 1.10,2013-10-17 06:52:00,
2013-10-17 03:07:00,59.0,57.0,29.84,SW,218,3.0,6.0,94,0.00,,,0.00,weatherlink.com 1.10,2013-10-17 07:07:00,
2013-10-17 03:22:00,58.9,57.0,29.84,SSW,203,6.0,7.0,94,0.00,,,0.00,weatherlink.com 1.10,2013-10-17 07:22:00,
2013-10-17 03:37:00,58.9,57.0,29.84,SW,220,4.0,7.0,94,0.00,,,0.00,weatherlink.com 1.10,2013-10-17 07:37:00,
2013-10-17 03:52:00,58.9,57.0,29.83,SSW,207,4.0,7.0,94,0.00,,,0.00,weatherlink.com 1.10,2013-10-17 07:52:00,
2013-10-17 04:07:00,59.0,58.0,29.83,SW,232,3.0,6.0,95,0.00,,,0.00,weatherlink.com 1.10,2013-10-17 08:07:00,
2013-10-17 04:22:00,59.0,58.0,29.83,SW,230,4.0,6.0,95,0.00,,,0.00,weatherlink.com 1.10,2013-10-17 08:22:00,
2013-10-17 04:37:00,59.1,58.0,29.83,SW,219,5.0,6.0,95,0.00,,,0.00,weatherlink.com 1.10,2013-10-17 08:37:00,
2013-10-17 04:52:00,59.1,58.0,29.82,SW,225,6.0,8.0,95,0.00,,,0.00,weatherlink.com 1.10,2013-10-17 08:52:00,
2013-10-17 05:07:00,59.2,58.0,29.82,SW,230,6.0,7.0,95,0.00,,,0.00,weatherlink.com 1.10,2013-10-17 09:07:00,
2013-10-17 05:22:00,59.1,58.0,29.82,SW,215,4.0,7.0,95,0.00,,,0.00,weatherlink.com 1.10,2013-10-17 09:22:00,
2013-10-17 05:37:00,59.1,58.0,29.82,SW,223,8.0,8.0,95,0.00,,,0.00,weatherlink.com 1.10,2013-10-17 09:37:00,
2013-10-17 05:52:00,59.2,58.0,29.82,SW,222,6.0,8.0,95,0.00,,,0.00,weatherlink.com 1.10,2013-10-17 09:52:00,
2013-10-17 06:07:00,59.4,58.0,29.82,SW,236,4.0,8.0,95,0.00,,,0.00,weatherlink.com 1.10,2013-10-17 10:07:00,
2013-10-17 06:22:00,59.4,58.0,29.82,WSW,240,6.0,9.0,95,0.00,,,0.00,weatherlink.com 1.10,2013-10-17 10:22:00,
2013-10-17 06:37:00,59.5,58.0,29.83,SW,235,5.0,7.0,95,0.00,,,0.00,weatherlink.com 1.10,2013-10-17 10:37:00,
2013-10-17 06:52:00,59.6,58.0,29.83,SW,234,3.0,9.0,95,0.00,,,0.00,weatherlink.com 1.10,2013-10-17 10:52:00,
2013-10-17 07:07:00,59.6,58.0,29.83,SW,234,5.0,7.0,94,0.00,,,0.00,weatherlink.com 1.10,2013-10-17 11:07:00,
2013-10-17 07:22:00,59.7,58.0,29.84,SW,223,2.0,7.0,94,0.00,,,0.00,weatherlink.com 1.10,2013-10-17 11:22:00,
2013-10-17 07:37:00,59.8,58.0,29.84,SW,235,2.0,6.0,94,0.00,,,0.00,weatherlink.com 1.10,2013-10-17 11:37:00,
2013-10-17 07:52:00,59.8,58.0,29.84,SW,236,4.0,5.0,94,0.00,,,0.00,weatherlink.com 1.10,2013-10-17 11:52:00,
2013-10-17 08:07:00,59.9,58.0,29.84,SW,234,4.0,6.0,94,0.00,,,0.00,weatherlink.com 1.10,2013-10-17 12:07:00,
2013-10-17 08:22:00,60.1,58.0,29.85,SW,232,6.0,7.0,94,0.00,,,0.00,weatherlink.com 1.10,2013-10-17 12:22:00,
2013-10-17 08:37:00,60.4,59.0,29.85,WNW,286,4.0,5.0,94,0.00,,,0.00,weatherlink.com 1.10,2013-10-17 12:37:00,
2013-10-17 08:52:00,60.6,59.0,29.85,West,263,2.0,8.0,94,0.00,,,0.00,weatherlink.com 1.10,2013-10-17 12:52:00,
2013-10-17 09:07:00,60.8,59.0,29.85,West,280,3.0,7.0,94,0.00,,,0.00,weatherlink.com 1.10,2013-10-17 13:07:00,
2013-10-17 09:22:00,60.8,59.0,29.85,West,271,6.0,8.0,93,0.00,,,0.00,weatherlink.com 1.10,2013-10-17 13:22:00,
2013-10-17 09:37:00,61.1,59.0,29.85,WNW,295,0.0,5.0,93,0.00,,,0.00,weatherlink.com 1.10,2013-10-17 13:37:00,
2013-10-17 09:52:00,61.5,59.0,29.85,WNW,299,0.0,5.0,92,0.00,,,0.00,weatherlink.com 1.10,2013-10-17 13:52:00,
2013-10-17 10:07:00,62.4,60.0,29.84,WSW,255,2.0,4.0,91,0.00,,,0.00,weatherlink.com 1.10,2013-10-17 14:07:00,
2013-10-17 10:23:00,63.4,60.0,29.84,SW,223,0.0,4.0,89,0.00,,,0.00,weatherlink.com 1.10,2013-10-17 14:23:00,
2013-10-17 10:38:00,65.0,60.0,29.83,SSW,202,0.0,4.0,85,0.00,,,0.00,weatherlink.com 1.10,2013-10-17 14:38:00,
2013-10-17 10:53:00,66.5,60.0,29.83,West,271,0.0,4.0,80,0.00,,,0.00,weatherlink.com 1.10,2013-10-17 14:53:00,
2013-10-17 11:08:00,67.7,60.0,29.82,SSW,210,3.0,4.0,77,0.00,,,0.00,weatherlink.com 1.10,2013-10-17 15:08:00,
2013-10-17 11:23:00,68.3,60.0,29.82,West,281,2.0,7.0,74,0.00,,,0.00,weatherlink.com 1.10,2013-10-17 15:23:00,
2013-10-17 11:38:00,68.5,59.0,29.82,NW,323,4.0,9.0,72,0.00,,,0.00,weatherlink.com 1.10,2013-10-17 15:38:00,
2013-10-17 11:53:00,69.4,58.0,29.81,WSW,250,5.0,12.0,68,0.00,,,0.00,weatherlink.com 1.10,2013-10-17 15:53:00,
2013-10-17 12:08:00,70.0,58.0,29.81,West,278,4.0,10.0,67,0.00,,,0.00,weatherlink.com 1.10,2013-10-17 16:08:00,
2013-10-17 12:23:00,69.8,57.0,29.80,WSW,258,5.0,10.0,65,0.00,,,0.00,weatherlink.com 1.10,2013-10-17 16:23:00,
2013-10-17 12:38:00,69.2,59.0,29.80,WNW,298,3.0,6.0,69,0.00,,,0.00,weatherlink.com 1.10,2013-10-17 16:38:00,
2013-10-17 12:53:00,71.0,59.0,29.79,SW,219,7.0,11.0,65,0.00,,,0.00,weatherlink.com 1.10,2013-10-17 16:53:00,
2013-10-17 13:08:00,70.4,58.0,29.78,WSW,243,5.0,9.0,65,0.00,,,0.00,weatherlink.com 1.10,2013-10-17 17:08:00,
2013-10-17 13:23:00,71.1,57.0,29.78,WSW,245,5.0,13.0,61,0.00,,,0.00,weatherlink.com 1.10,2013-10-17 17:23:00,
2013-10-17 13:38:00,71.4,56.0,29.77,NW,310,4.0,12.0,59,0.00,,,0.00,weatherlink.com 1.10,2013-10-17 17:38:00,
2013-10-17 13:53:00,71.7,55.0,29.76,West,265,5.0,12.0,56,0.00,,,0.00,weatherlink.com 1.10,2013-10-17 17:53:00,
2013-10-17 14:08:00,72.2,57.0,29.75,WSW,257,5.0,15.0,59,0.00,,,0.00,weatherlink.com 1.10,2013-10-17 18:08:00,
2013-10-17 14:23:00,72.5,56.0,29.75,West,279,5.0,12.0,56,0.00,,,0.00,weatherlink.com 1.10,2013-10-17 18:23:00,
2013-10-17 14:38:00,72.3,56.0,29.75,WSW,246,7.0,12.0,57,0.00,,,0.00,weatherlink.com 1.10,2013-10-17 18:38:00,
2013-10-17 14:53:00,72.6,56.0,29.74,WSW,252,7.0,13.0,56,0.00,,,0.00,weatherlink.com 1.10,2013-10-17 18:53:00,
2013-10-17 15:08:00,72.8,55.0,29.73,SW,230,5.0,10.0,54,0.00,,,0.00,weatherlink.com 1.10,2013-10-17 19:08:00,
2013-10-17 15:24:00,73.2,55.0,29.72,SW,229,5.0,12.0,53,0.00,,,0.00,weatherlink.com 1.10,2013-10-17 19:24:00,
2013-10-17 15:39:00,73.1,55.0,29.72,WNW,284,2.0,13.0,53,0.00,,,0.00,weatherlink.com 1.10,2013-10-17 19:39:00,
2013-10-17 15:54:00,72.9,55.0,29.72,West,280,3.0,10.0,54,0.00,,,0.00,weatherlink.com 1.10,2013-10-17 19:54:00,
2013-10-17 16:09:00,73.0,55.0,29.72,WSW,254,4.0,11.0,53,0.00,,,0.00,weatherlink.com 1.10,2013-10-17 20:09:00,
2013-10-17 16:24:00,72.9,55.0,29.72,West,262,3.0,10.0,54,0.00,,,0.00,weatherlink.com 1.10,2013-10-17 20:24:00,
2013-10-17 16:39:00,72.2,55.0,29.71,WSW,251,3.0,12.0,55,0.00,,,0.00,weatherlink.com 1.10,2013-10-17 20:39:00,
2013-10-17 16:54:00,71.0,55.0,29.71,West,259,4.0,6.0,57,0.00,,,0.00,weatherlink.com 1.10,2013-10-17 20:54:00,
2013-10-17 17:09:00,70.8,56.0,29.70,SW,223,4.0,6.0,59,0.00,,,0.00,weatherlink.com 1.10,2013-10-17 21:09:00,
2013-10-17 17:24:00,70.6,57.0,29.70,SSW,207,4.0,6.0,62,0.00,,,0.00,weatherlink.com 1.10,2013-10-17 21:24:00,
2013-10-17 17:39:00,69.6,58.0,29.70,SSW,211,4.0,5.0,66,0.00,,,0.00,weatherlink.com 1.10,2013-10-17 21:39:00,
2013-10-17 17:54:00,68.8,58.0,29.69,SSW,203,5.0,7.0,69,0.00,,,0.00,weatherlink.com 1.10,2013-10-17 21:54:00,
2013-10-17 18:09:00,68.1,58.0,29.69,SSW,199,3.0,7.0,71,0.00,,,0.00,weatherlink.com 1.10,2013-10-17 22:09:00,
2013-10-17 18:24:00,67.2,59.0,29.69,SSW,194,3.0,6.0,74,0.00,,,0.00,weatherlink.com 1.10,2013-10-17 22:24:00,
2013-10-17 18:39:00,66.7,59.0,29.69,SW,217,6.0,7.0,75,0.00,,,0.00,weatherlink.com 1.10,2013-10-17 22:39:00,
2013-10-17 18:54:00,66.6,59.0,29.69,SW,214,4.0,7.0,76,0.00,,,0.00,weatherlink.com 1.10,2013-10-17 22:54:00,
2013-10-17 19:09:00,66.1,59.0,29.69,SW,224,5.0,9.0,77,0.00,,,0.00,weatherlink.com 1.10,2013-10-17 23:09:00,
2013-10-17 19:24:00,65.9,59.0,29.69,SSW,202,5.0,10.0,78,0.00,,,0.00,weatherlink.com 1.10,2013-10-17 23:24:00,
2013-10-17 19:39:00,65.7,59.0,29.68,SSW,196,6.0,10.0,79,0.00,,,0.00,weatherlink.com 1.10,2013-10-17 23:39:00,
2013-10-17 19:54:00,65.4,59.0,29.68,SW,217,6.0,9.0,81,0.00,,,0.00,weatherlink.com 1.10,2013-10-17 23:54:00,
2013-10-17 20:09:00,65.1,60.0,29.68,SW,215,7.0,10.0,82,0.00,,,0.00,weatherlink.com 1.10,2013-10-18 00:09:00,
2013-10-17 20:24:00,64.7,59.0,29.68,SW,219,7.0,8.0,83,0.00,,,0.00,weatherlink.com 1.10,2013-10-18 00:24:00,
2013-10-17 20:39:00,64.3,59.0,29.66,SSW,202,5.0,12.0,84,0.00,,,0.00,weatherlink.com 1.10,2013-10-18 00:39:00,
2013-10-17 20:54:00,64.1,60.0,29.67,SSW,213,6.0,10.0,85,0.00,,,0.00,weatherlink.com 1.10,2013-10-18 00:54:00,
2013-10-17 21:09:00,64.0,60.0,29.67,SSW,210,5.0,9.0,86,0.00,,,0.00,weatherlink.com 1.10,2013-10-18 01:09:00,
2013-10-17 21:24:00,64.0,60.0,29.67,SW,217,6.0,9.0,86,0.00,,,0.00,weatherlink.com 1.10,2013-10-18 01:24:00,
2013-10-17 21:39:00,63.8,60.0,29.67,West,262,6.0,11.0,88,0.00,,,0.00,weatherlink.com 1.10,2013-10-18 01:39:00,
2013-10-17 21:54:00,63.2,60.0,29.65,SSW,211,5.0,11.0,90,0.00,,,0.00,weatherlink.com 1.10,2013-10-18 01:54:00,
2013-10-17 22:10:00,62.8,60.0,29.65,SSW,213,6.0,11.0,91,0.00,,,0.00,weatherlink.com 1.10,2013-10-18 02:10:00,
2013-10-17 22:25:00,62.5,60.0,29.65,SW,232,4.0,12.0,92,0.00,,,0.00,weatherlink.com 1.10,2013-10-18 02:25:00,
2013-10-17 22:40:00,62.3,60.0,29.65,SW,214,10.0,13.0,93,0.01,,,0.01,weatherlink.com 1.10,2013-10-18 02:40:00,
2013-10-17 22:55:00,62.2,61.0,29.63,SW,214,9.0,15.0,94,0.01,,,0.01,weatherlink.com 1.10,2013-10-18 02:55:00,
2013-10-17 23:10:00,62.1,60.0,29.62,SSW,211,8.0,17.0,94,0.01,,,0.01,weatherlink.com 1.10,2013-10-18 03:10:00,
2013-10-17 23:25:00,62.1,60.0,29.62,WSW,246,8.0,13.0,94,0.01,,,0.01,weatherlink.com 1.10,2013-10-18 03:25:00,
2013-10-17 23:40:00,62.2,61.0,29.61,WSW,247,6.0,13.0,94,0.00,,,0.01,weatherlink.com 1.10,2013-10-18 03:40:00,
2013-10-17 23:55:00,62.3,61.0,29.61,WSW,248,9.0,15.0,94,0.02,,,0.03,weatherlink.com 1.10,2013-10-18 03:55:00,